createdAt,value
2019-03-23T00:00:38.016Z,45.77
2019-03-23T00:03:07.827Z,49.30
2019-03-23T00:05:37.670Z,46.57
2019-03-23T00:08:07.558Z,57.90
2019-03-23T00:10:37.408Z,50.40
2019-03-23T00:13:07.262Z,48.67
2019-03-23T00:15:37.043Z,53.03
2019-03-23T00:18:07.032Z,48.70
2019-03-23T00:20:36.835Z,47.30
2019-03-23T00:23:06.550Z,50.83
2019-03-23T00:25:36.366Z,51.70
2019-03-23T00:28:06.203Z,54.43
2019-03-23T00:30:36.016Z,53.27
2019-03-23T00:33:05.818Z,48.50
2019-03-23T00:35:35.602Z,50.93
2019-03-23T00:38:05.397Z,52.10
2019-03-23T00:40:35.222Z,51.93
2019-03-23T00:43:05.033Z,49.77
2019-03-23T00:45:34.817Z,48.83
2019-03-23T00:48:04.750Z,48.90
2019-03-23T00:50:34.561Z,45.00
2019-03-23T00:53:04.491Z,48.30
2019-03-23T00:55:34.321Z,46.37
2019-03-23T00:58:04.082Z,45.13
2019-03-23T01:00:33.925Z,51.57
2019-03-23T01:03:03.719Z,52.87
2019-03-23T01:05:33.498Z,47.17
2019-03-23T01:08:03.342Z,50.63
2019-03-23T01:10:33.247Z,51.37
2019-03-23T01:13:02.970Z,55.60
2019-03-23T01:15:32.778Z,49.20
2019-03-23T01:18:02.622Z,46.53
2019-03-23T01:20:32.488Z,48.40
2019-03-23T01:23:02.211Z,57.10
2019-03-23T01:25:32.035Z,47.37
2019-03-23T01:28:01.828Z,47.93
2019-03-23T01:30:31.638Z,45.43
2019-03-23T01:33:01.449Z,46.27
2019-03-23T01:35:31.320Z,53.93
2019-03-23T01:38:01.114Z,46.90
2019-03-23T01:40:30.933Z,49.37
2019-03-23T01:43:00.715Z,47.43
2019-03-23T01:45:30.449Z,41.27
2019-03-23T01:48:00.417Z,47.10
2019-03-23T01:50:30.222Z,47.50
2019-03-23T01:52:59.930Z,53.13
2019-03-23T01:55:30.030Z,46.03
2019-03-23T01:57:59.917Z,49.53
2019-03-23T02:00:29.917Z,51.07
2019-03-23T02:03:00.166Z,47.33
2019-03-23T02:05:29.951Z,45.40
2019-03-23T02:07:59.731Z,45.20
2019-03-23T02:10:29.706Z,45.20
2019-03-23T02:12:59.502Z,48.83
2019-03-23T02:15:29.325Z,47.00
2019-03-23T02:17:59.167Z,49.60
2019-03-23T02:20:28.968Z,49.40
2019-03-23T02:23:01.044Z,49.50
2019-03-23T02:25:30.867Z,44.97
2019-03-23T02:28:00.689Z,54.23
2019-03-23T02:30:30.411Z,51.00
2019-03-23T02:33:00.256Z,51.80
2019-03-23T02:35:42.611Z,47.80
2019-03-23T02:38:12.454Z,54.03
2019-03-23T02:40:42.273Z,50.73
2019-03-23T02:43:12.286Z,48.80
2019-03-23T02:45:42.154Z,48.53
2019-03-23T02:48:11.975Z,49.40
2019-03-23T02:50:42.064Z,50.23
2019-03-23T02:53:11.962Z,48.20
2019-03-23T02:55:41.742Z,54.67
2019-03-23T02:58:11.483Z,47.07
2019-03-23T03:00:41.366Z,49.47
2019-03-23T03:03:11.145Z,45.70
2019-03-23T03:05:40.835Z,45.53
2019-03-23T03:08:10.715Z,54.30
2019-03-23T03:10:41.015Z,52.97
2019-03-23T03:13:11.354Z,47.90
2019-03-23T03:15:41.443Z,53.67
2019-03-23T03:18:11.211Z,52.37
2019-03-23T03:20:41.043Z,50.13
2019-03-23T03:23:10.903Z,48.23
2019-03-23T03:25:40.703Z,53.47
2019-03-23T03:28:10.599Z,50.80
2019-03-23T03:30:40.441Z,50.97
2019-03-23T03:33:10.200Z,54.80
2019-03-23T03:35:40.024Z,56.43
2019-03-23T03:38:09.861Z,53.23
2019-03-23T03:40:40.298Z,52.77
2019-03-23T03:43:10.178Z,54.10
2019-03-23T03:45:40.074Z,51.27
2019-03-23T03:48:09.971Z,52.27
2019-03-23T03:50:39.867Z,57.93
2019-03-23T03:53:09.702Z,53.60
2019-03-23T03:55:39.495Z,54.67
2019-03-23T03:58:09.325Z,62.80
2019-03-23T04:00:39.171Z,52.27
2019-03-23T04:03:09.010Z,53.17
2019-03-23T04:05:38.894Z,54.33
2019-03-23T04:08:11.781Z,54.73
2019-03-23T04:10:40.236Z,54.53
2019-03-23T04:13:10.053Z,55.53
2019-03-23T04:15:39.921Z,53.73
2019-03-23T04:18:09.836Z,57.83
2019-03-23T04:20:39.649Z,60.00
2019-03-23T04:23:09.449Z,53.93
2019-03-23T04:25:39.265Z,57.80
2019-03-23T04:28:09.090Z,55.83
2019-03-23T04:30:40.623Z,52.03
2019-03-23T04:33:10.478Z,56.80
2019-03-23T04:35:40.361Z,54.77
2019-03-23T04:38:21.978Z,55.20
2019-03-23T04:40:41.813Z,52.57
2019-03-23T04:43:11.643Z,50.57
2019-03-23T04:45:41.449Z,54.90
2019-03-23T04:48:11.191Z,55.53
2019-03-23T04:50:40.966Z,59.10
2019-03-23T04:53:10.926Z,55.50
2019-03-23T04:55:40.730Z,51.33
2019-03-23T04:58:10.542Z,57.23
2019-03-23T05:00:40.314Z,59.53
2019-03-23T05:03:10.202Z,54.83
2019-03-23T05:05:40.058Z,56.67
2019-03-23T05:08:10.098Z,56.40
2019-03-23T05:10:39.905Z,52.03
2019-03-23T05:13:09.693Z,52.43
2019-03-23T05:15:39.501Z,48.80
2019-03-23T05:18:09.408Z,49.77
2019-03-23T05:20:39.190Z,54.53
2019-03-23T05:23:09.046Z,48.97
2019-03-23T05:25:38.850Z,52.57
2019-03-23T05:28:08.634Z,46.60
2019-03-23T05:30:38.438Z,52.13
2019-03-23T05:33:08.286Z,48.33
2019-03-23T05:35:38.138Z,54.60
2019-03-23T05:38:08.013Z,49.03
2019-03-23T05:40:37.819Z,44.93
2019-03-23T05:43:07.632Z,51.00
2019-03-23T05:45:37.410Z,51.90
2019-03-23T05:48:07.222Z,51.27
2019-03-23T05:50:36.993Z,53.20
2019-03-23T05:53:06.814Z,51.80
2019-03-23T05:55:36.619Z,46.73
2019-03-23T05:58:06.386Z,53.37
2019-03-23T06:00:36.164Z,51.53
2019-03-23T06:03:06.114Z,46.53
2019-03-23T06:05:35.969Z,55.90
2019-03-23T06:08:05.850Z,50.27
2019-03-23T06:10:35.671Z,48.57
2019-03-23T06:13:05.451Z,52.60
2019-03-23T06:15:35.181Z,48.23
2019-03-23T06:18:05.247Z,51.73
2019-03-23T06:20:35.039Z,49.37
2019-03-23T06:23:04.823Z,52.67
2019-03-23T06:25:34.743Z,43.90
2019-03-23T06:28:04.838Z,51.77
2019-03-23T06:30:34.666Z,52.23
2019-03-23T06:33:04.667Z,50.47
2019-03-23T06:35:34.482Z,54.17
2019-03-23T06:38:04.256Z,47.90
2019-03-23T06:40:34.124Z,47.23
2019-03-23T06:43:03.910Z,48.53
2019-03-23T06:45:33.770Z,45.87
2019-03-23T06:48:03.596Z,54.97
2019-03-23T06:50:33.615Z,45.00
2019-03-23T06:53:03.475Z,48.33
2019-03-23T06:55:33.545Z,50.80
2019-03-23T06:58:03.323Z,48.53
2019-03-23T07:00:33.129Z,44.30
2019-03-23T07:03:02.957Z,52.90
2019-03-23T07:05:32.803Z,44.07
2019-03-23T07:08:02.632Z,46.63
2019-03-23T07:10:32.516Z,46.27
2019-03-23T07:13:02.302Z,47.50
2019-03-23T07:15:32.182Z,50.83
2019-03-23T07:18:01.916Z,42.27
2019-03-23T07:20:31.694Z,40.87
2019-03-23T07:23:01.504Z,45.53
2019-03-23T07:25:31.288Z,42.70
2019-03-23T07:28:01.194Z,44.13
2019-03-23T07:30:31.311Z,43.63
2019-03-23T07:33:01.090Z,44.07
2019-03-23T07:35:30.941Z,37.87
2019-03-23T07:38:00.817Z,45.67
2019-03-23T07:40:30.753Z,42.67
2019-03-23T07:43:00.862Z,37.77
2019-03-23T07:45:30.702Z,38.30
2019-03-23T07:48:00.693Z,37.90
2019-03-23T07:50:30.573Z,42.27
2019-03-23T07:53:00.387Z,38.30
2019-03-23T07:55:30.212Z,41.47
2019-03-23T07:58:00.012Z,34.40
2019-03-23T08:00:29.805Z,40.93
2019-03-23T08:02:59.578Z,35.57
2019-03-23T08:05:29.385Z,36.50
2019-03-23T08:07:59.199Z,39.50
2019-03-23T08:10:31.109Z,25.97
2019-03-23T08:13:01.294Z,32.70
2019-03-23T08:15:31.117Z,34.40
2019-03-23T08:18:00.923Z,36.17
2019-03-23T08:20:30.723Z,32.30
2019-03-23T08:23:00.539Z,32.03
2019-03-23T08:25:30.383Z,31.30
2019-03-23T08:28:00.268Z,27.30
2019-03-23T08:30:30.870Z,25.97
2019-03-23T08:33:01.665Z,29.13
2019-03-23T08:35:32.070Z,27.80
2019-03-23T08:38:01.896Z,27.17
2019-03-23T08:40:31.747Z,29.53
2019-03-23T08:43:01.535Z,25.70
2019-03-23T08:45:31.347Z,23.10
2019-03-23T08:48:01.423Z,24.60
2019-03-23T08:50:31.590Z,26.10
2019-03-23T08:53:01.562Z,20.50
2019-03-23T08:55:32.232Z,22.00
2019-03-23T08:58:02.528Z,23.93
2019-03-23T09:00:32.685Z,23.73
2019-03-23T09:03:03.803Z,21.07
2019-03-23T09:05:34.043Z,19.50
2019-03-23T09:08:04.317Z,22.47
2019-03-23T09:10:34.214Z,19.37
2019-03-23T09:13:04.040Z,21.07
2019-03-23T09:15:33.925Z,20.10
2019-03-23T09:18:03.718Z,17.80
2019-03-23T09:20:33.572Z,18.17
2019-03-23T09:23:03.381Z,14.93
2019-03-23T09:25:33.202Z,16.87
2019-03-23T09:28:03.222Z,16.37
2019-03-23T09:30:51.906Z,16.20
2019-03-23T09:33:21.936Z,16.73
2019-03-23T09:35:51.798Z,17.83
2019-03-23T09:38:21.623Z,11.57
2019-03-23T09:40:51.529Z,14.80
2019-03-23T09:43:21.379Z,14.73
2019-03-23T09:45:51.305Z,14.53
2019-03-23T09:48:21.102Z,19.43
2019-03-23T09:50:50.886Z,18.27
2019-03-23T09:53:20.873Z,10.17
2019-03-23T09:55:51.163Z,10.87
2019-03-23T09:58:21.142Z,11.33
2019-03-23T10:00:51.434Z,12.93
2019-03-23T10:03:21.450Z,10.77
2019-03-23T10:06:09.955Z,9.03
2019-03-23T10:08:39.886Z,8.17
2019-03-23T10:11:09.787Z,12.90
2019-03-23T10:13:39.779Z,13.00
2019-03-23T10:16:09.931Z,10.90
2019-03-23T10:18:40.290Z,7.47
2019-03-23T10:21:10.121Z,11.30
2019-03-23T10:23:58.827Z,9.77
2019-03-23T10:26:29.084Z,11.03
2019-03-23T10:28:58.986Z,12.27
2019-03-23T10:31:29.143Z,10.87
2019-03-23T10:33:59.213Z,10.80
2019-03-23T10:36:29.510Z,15.87
2019-03-23T10:38:59.690Z,14.33
2019-03-23T10:41:29.902Z,10.43
2019-03-23T10:44:00.543Z,10.70
2019-03-23T10:46:30.337Z,9.00
2019-03-23T10:49:00.964Z,8.87
2019-03-23T10:51:31.234Z,11.73
2019-03-23T10:54:01.020Z,9.23
2019-03-23T10:56:30.981Z,7.07
2019-03-23T10:59:00.886Z,8.17
2019-03-23T11:01:30.698Z,8.90
2019-03-23T11:04:00.482Z,7.23
2019-03-23T11:06:30.461Z,14.87
2019-03-23T11:09:00.252Z,14.77
2019-03-23T11:11:30.051Z,9.90
2019-03-23T11:13:59.920Z,9.73
2019-03-23T11:16:29.876Z,13.20
2019-03-23T11:18:59.663Z,10.70
2019-03-23T11:21:29.482Z,18.03
2019-03-23T11:23:59.281Z,8.37
2019-03-23T11:26:29.414Z,9.03
2019-03-23T11:28:59.243Z,13.07
2019-03-23T11:31:30.972Z,9.93
2019-03-23T11:34:00.506Z,12.87
2019-03-23T11:36:30.292Z,7.00
2019-03-23T11:39:00.095Z,6.40
2019-03-23T11:41:30.084Z,10.07
2019-03-23T11:43:59.881Z,5.83
2019-03-23T11:46:29.819Z,7.93
2019-03-23T11:48:59.926Z,8.97
2019-03-23T11:51:29.765Z,9.87
2019-03-23T11:53:59.705Z,11.03
2019-03-23T11:56:30.554Z,9.10
2019-03-23T11:59:00.686Z,7.53
2019-03-23T12:01:30.791Z,10.13
2019-03-23T12:04:00.606Z,8.53
2019-03-23T12:06:30.520Z,9.13
2019-03-23T12:09:00.301Z,8.50
2019-03-23T12:11:30.141Z,9.13
2019-03-23T12:14:00.161Z,7.70
2019-03-23T12:16:30.015Z,10.90
2019-03-23T12:19:00.309Z,11.53
2019-03-23T12:21:30.429Z,14.90
2019-03-23T12:24:00.254Z,9.13
2019-03-23T12:26:30.074Z,13.40
2019-03-23T12:28:59.906Z,10.27
2019-03-23T12:31:29.965Z,10.17
2019-03-23T12:33:59.994Z,9.73
2019-03-23T12:36:29.897Z,10.53
2019-03-23T12:38:59.710Z,11.03
2019-03-23T12:41:29.609Z,11.90
2019-03-23T12:43:59.399Z,9.27
2019-03-23T12:46:29.254Z,6.93
2019-03-23T12:48:59.314Z,13.83
2019-03-23T12:51:29.162Z,11.53
2019-03-23T12:53:59.123Z,8.30
2019-03-23T12:56:28.922Z,7.37
2019-03-23T12:58:58.972Z,10.13
2019-03-23T13:01:28.778Z,9.40
2019-03-23T13:03:58.597Z,11.87
2019-03-23T13:06:28.425Z,11.63
2019-03-23T13:08:58.311Z,8.33
2019-03-23T13:11:34.885Z,4.73
2019-03-23T13:13:59.742Z,11.73
2019-03-23T13:16:29.938Z,15.10
2019-03-23T13:18:59.846Z,9.63
2019-03-23T13:21:29.650Z,6.40
2019-03-23T13:23:59.542Z,8.53
2019-03-23T13:26:29.493Z,7.83
2019-03-23T13:29:01.166Z,10.03
2019-03-23T13:31:31.240Z,10.50
2019-03-23T13:34:01.409Z,12.90
2019-03-23T13:36:31.332Z,6.53
2019-03-23T13:39:01.233Z,10.37
2019-03-23T13:41:31.047Z,8.87
2019-03-23T13:44:00.858Z,9.07
2019-03-23T13:46:30.876Z,10.13
2019-03-23T13:49:00.835Z,14.07
2019-03-23T13:51:30.674Z,9.67
2019-03-23T13:54:00.546Z,7.77
2019-03-23T13:56:30.342Z,9.83
2019-03-23T13:59:00.139Z,14.77
2019-03-23T14:01:29.979Z,8.97
2019-03-23T14:03:59.941Z,10.27
2019-03-23T14:06:29.914Z,12.13
2019-03-23T14:08:59.724Z,11.67
2019-03-23T14:11:29.651Z,14.90
2019-03-23T14:13:59.862Z,12.73
2019-03-23T14:16:29.931Z,8.10
2019-03-23T14:19:01.227Z,10.03
2019-03-23T14:21:31.367Z,14.93
2019-03-23T14:24:01.578Z,9.97
2019-03-23T14:26:31.798Z,8.93
2019-03-23T14:29:01.973Z,10.00
2019-03-23T14:31:32.143Z,12.47
2019-03-23T14:34:02.254Z,10.33
2019-03-23T14:36:32.813Z,11.57
2019-03-23T14:39:04.239Z,8.10
2019-03-23T14:41:34.015Z,5.97
2019-03-23T14:44:03.786Z,15.33
2019-03-23T14:46:33.626Z,6.47
2019-03-23T14:49:03.489Z,13.93
2019-03-23T14:51:33.297Z,18.67
2019-03-23T14:54:03.244Z,8.53
2019-03-23T14:56:33.174Z,11.77
2019-03-23T14:59:03.199Z,9.53
2019-03-23T15:01:33.192Z,8.10
2019-03-23T15:04:03.043Z,17.47
2019-03-23T15:06:32.908Z,12.33
2019-03-23T15:09:03.425Z,12.90
2019-03-23T15:11:33.546Z,9.03
2019-03-23T15:14:08.044Z,17.67
2019-03-23T15:16:38.005Z,11.90
2019-03-23T15:19:08.206Z,13.50
2019-03-23T15:21:38.098Z,12.50
2019-03-23T15:24:07.926Z,12.40
2019-03-23T15:26:37.754Z,9.97
2019-03-23T15:29:07.666Z,9.87
2019-03-23T15:31:37.695Z,9.57
2019-03-23T15:34:07.736Z,16.00
2019-03-23T15:36:37.509Z,11.97
2019-03-23T15:39:08.719Z,17.43
2019-03-23T15:41:38.601Z,12.70
2019-03-23T15:44:08.623Z,11.87
2019-03-23T15:46:39.075Z,13.27
2019-03-23T15:49:09.393Z,14.53
2019-03-23T15:51:39.554Z,8.57
2019-03-23T15:54:11.933Z,8.40
2019-03-23T15:56:42.429Z,12.47
2019-03-23T15:59:13.177Z,6.77
2019-03-23T16:01:43.662Z,11.53
2019-03-23T16:04:13.647Z,14.77
2019-03-23T16:06:44.007Z,14.43
2019-03-23T16:09:14.645Z,5.87
2019-03-23T16:11:44.809Z,15.03
2019-03-23T16:14:21.011Z,12.93
2019-03-23T16:16:51.654Z,15.03
2019-03-23T16:19:22.007Z,18.97
2019-03-23T16:21:52.201Z,10.23
2019-03-23T16:24:22.406Z,11.73
2019-03-23T16:26:53.048Z,9.87
2019-03-23T16:29:23.429Z,21.53
2019-03-23T16:31:53.927Z,13.10
2019-03-23T16:34:24.029Z,14.83
2019-03-23T16:36:54.302Z,12.53
2019-03-23T16:39:24.560Z,14.83
2019-03-23T16:41:54.636Z,15.43
2019-03-23T16:44:24.691Z,15.70
2019-03-23T16:46:55.221Z,14.40
2019-03-23T16:49:27.925Z,14.03
2019-03-23T16:51:58.051Z,17.17
2019-03-23T16:54:28.226Z,13.47
2019-03-23T16:56:58.190Z,15.07
2019-03-23T16:59:28.242Z,10.90
2019-03-23T17:02:17.185Z,11.83
2019-03-23T17:04:47.068Z,17.17
2019-03-23T17:07:16.864Z,14.43
2019-03-23T17:09:46.716Z,12.47
2019-03-23T17:12:16.547Z,12.07
2019-03-23T17:14:46.487Z,12.20
2019-03-23T17:17:16.330Z,15.50
2019-03-23T17:19:46.177Z,12.17
2019-03-23T17:22:15.978Z,14.00
2019-03-23T17:24:45.762Z,10.93
2019-03-23T17:27:15.680Z,13.83
2019-03-23T17:29:45.487Z,18.47
2019-03-23T17:32:15.283Z,12.37
2019-03-23T17:34:45.051Z,13.13
2019-03-23T17:37:14.856Z,12.47
2019-03-23T17:39:44.648Z,13.70
2019-03-23T17:42:14.598Z,17.50
2019-03-23T17:44:46.160Z,20.47
2019-03-23T17:47:15.894Z,14.50
2019-03-23T17:49:45.772Z,10.27
2019-03-23T17:52:15.678Z,15.77
2019-03-23T17:54:45.602Z,16.50
2019-03-23T17:57:16.016Z,11.73
2019-03-23T17:59:45.922Z,14.33
2019-03-23T18:02:16.200Z,16.40
2019-03-23T18:04:46.114Z,12.17
2019-03-23T18:07:16.114Z,17.33
2019-03-23T18:09:45.997Z,16.27
2019-03-23T18:12:15.926Z,14.50
2019-03-23T18:14:45.933Z,17.40
2019-03-23T18:17:15.878Z,13.23
2019-03-23T18:19:45.806Z,19.50
2019-03-23T18:22:18.168Z,13.43
2019-03-23T18:24:48.221Z,16.23
2019-03-23T18:27:18.373Z,13.20
2019-03-23T18:29:48.179Z,14.57
2019-03-23T18:32:18.028Z,15.20
2019-03-23T18:34:47.893Z,17.60
2019-03-23T18:37:17.751Z,9.50
2019-03-23T18:39:47.575Z,16.97
2019-03-23T18:42:17.714Z,16.43
2019-03-23T18:44:47.627Z,13.53
2019-03-23T18:47:17.431Z,18.77
2019-03-23T18:49:47.334Z,17.60
2019-03-23T18:52:17.347Z,15.80
2019-03-23T18:54:47.291Z,18.53
2019-03-23T18:57:17.195Z,23.23
2019-03-23T18:59:47.178Z,14.27
2019-03-23T19:02:17.070Z,16.77
2019-03-23T19:04:46.955Z,18.30
2019-03-23T19:07:17.082Z,15.00
2019-03-23T19:09:46.922Z,13.67
2019-03-23T19:12:17.100Z,11.77
2019-03-23T19:14:46.972Z,13.63
2019-03-23T19:17:17.065Z,12.97
2019-03-23T19:19:48.587Z,12.67
2019-03-23T19:22:18.674Z,15.63
2019-03-23T19:24:48.663Z,17.77
2019-03-23T19:27:18.462Z,15.43
2019-03-23T19:29:48.478Z,19.27
2019-03-23T19:32:18.297Z,13.30
2019-03-23T19:34:48.241Z,19.27
2019-03-23T19:37:18.286Z,15.93
2019-03-23T19:39:48.034Z,13.97
2019-03-23T19:42:20.559Z,13.90
2019-03-23T19:44:50.754Z,12.13
2019-03-23T19:47:23.576Z,13.60
2019-03-23T19:49:53.414Z,14.30
2019-03-23T19:52:23.539Z,14.33
2019-03-23T19:54:53.640Z,16.50
2019-03-23T19:57:23.457Z,18.23
2019-03-23T19:59:53.530Z,22.23
2019-03-23T20:02:26.962Z,10.90
2019-03-23T20:04:57.028Z,12.63
2019-03-23T20:07:32.981Z,12.43
2019-03-23T20:09:58.666Z,15.73
2019-03-23T20:12:28.548Z,19.37
2019-03-23T20:14:58.358Z,15.90
2019-03-23T20:17:28.201Z,9.90
2019-03-23T20:19:58.197Z,16.37
2019-03-23T20:22:28.044Z,11.33
2019-03-23T20:24:57.812Z,14.30
2019-03-23T20:27:27.845Z,17.33
2019-03-23T20:29:57.686Z,11.97
2019-03-23T20:32:27.497Z,16.00
2019-03-23T20:34:57.208Z,16.73
2019-03-23T20:37:27.179Z,12.93
2019-03-23T20:39:56.906Z,13.20
2019-03-23T20:42:27.665Z,13.60
2019-03-23T20:44:57.614Z,13.33
2019-03-23T20:47:27.498Z,17.50
2019-03-23T20:49:57.377Z,16.57
2019-03-23T20:52:27.215Z,16.63
2019-03-23T20:54:57.082Z,21.20
2019-03-23T20:57:37.017Z,11.73
2019-03-23T20:59:58.840Z,10.37
2019-03-23T21:02:28.675Z,7.50
2019-03-23T21:04:58.574Z,10.93
2019-03-23T21:07:28.865Z,15.03
2019-03-23T21:09:58.759Z,14.67
2019-03-23T21:12:28.743Z,12.30
2019-03-23T21:14:58.624Z,12.40
2019-03-23T21:17:28.860Z,12.90
2019-03-23T21:19:58.911Z,9.57
2019-03-23T21:22:28.807Z,16.00
2019-03-23T21:24:58.528Z,12.17
2019-03-23T21:27:28.310Z,12.90
2019-03-23T21:29:58.213Z,11.17
2019-03-23T21:32:27.990Z,11.40
2019-03-23T21:34:57.743Z,15.73
2019-03-23T21:37:27.915Z,13.03
2019-03-23T21:39:58.032Z,11.90
2019-03-23T21:42:27.903Z,12.43
2019-03-23T21:44:57.740Z,15.50
2019-03-23T21:47:27.672Z,10.77
2019-03-23T21:49:57.600Z,11.97
2019-03-23T21:52:27.377Z,12.97
2019-03-23T21:54:57.431Z,14.87
2019-03-23T21:57:27.225Z,9.57
2019-03-23T21:59:57.194Z,11.43
2019-03-23T22:02:27.030Z,11.93
2019-03-23T22:04:56.868Z,10.97
2019-03-23T22:07:26.731Z,19.30
2019-03-23T22:09:57.604Z,10.73
2019-03-23T22:12:27.645Z,12.93
2019-03-23T22:14:57.502Z,18.03
2019-03-23T22:17:27.335Z,10.07
2019-03-23T22:19:57.168Z,11.20
2019-03-23T22:22:27.111Z,10.97
2019-03-23T22:24:56.997Z,14.40
2019-03-23T22:27:26.944Z,15.20
2019-03-23T22:29:57.002Z,18.30
2019-03-23T22:32:26.965Z,14.57
2019-03-23T22:34:56.781Z,9.50
2019-03-23T22:37:26.986Z,12.33
2019-03-23T22:39:56.914Z,12.20
2019-03-23T22:42:26.746Z,11.93
2019-03-23T22:44:57.286Z,12.73
2019-03-23T22:47:28.284Z,12.87
2019-03-23T22:49:58.102Z,16.87
2019-03-23T22:52:28.075Z,15.53
2019-03-23T22:54:57.902Z,18.67
2019-03-23T22:57:27.725Z,14.10
2019-03-23T22:59:57.756Z,17.07
2019-03-23T23:02:27.538Z,16.43
2019-03-23T23:04:57.610Z,9.33
2019-03-23T23:07:27.430Z,15.53
2019-03-23T23:09:57.293Z,12.20
2019-03-23T23:12:27.401Z,13.00
2019-03-23T23:15:04.471Z,15.00
2019-03-23T23:17:29.091Z,15.60
2019-03-23T23:19:58.877Z,14.80
2019-03-23T23:22:28.697Z,14.40
2019-03-23T23:24:58.698Z,10.20
2019-03-23T23:27:28.386Z,14.17
2019-03-23T23:29:58.203Z,13.43
2019-03-23T23:32:27.976Z,16.77
2019-03-23T23:34:57.782Z,10.10
2019-03-23T23:37:27.598Z,16.47
2019-03-23T23:39:57.394Z,11.50
2019-03-23T23:42:27.366Z,15.40
2019-03-23T23:44:58.197Z,12.37
2019-03-23T23:47:28.009Z,15.27
2019-03-23T23:49:57.974Z,11.77
2019-03-23T23:52:27.938Z,12.70
2019-03-23T23:54:57.651Z,13.17
2019-03-23T23:57:27.422Z,18.97
2019-03-23T23:59:57.330Z,14.13
